sensor_id;sensor_type;location;lat;lon;timestamp;P1;durP1;ratioP1;P2;durP2;ratioP2
55069;SDS011;40967;52.070;8.596;2023-08-07T00:02:25;3.07;;;1.17;;
55069;SDS011;40967;52.070;8.596;2023-08-07T00:04:50;4.53;;;1.00;;
55069;SDS011;40967;52.070;8.596;2023-08-07T00:07:16;2.27;;;0.93;;
55069;SDS011;40967;52.070;8.596;2023-08-07T00:09:43;3.25;;;1.08;;
55069;SDS011;40967;52.070;8.596;2023-08-07T00:12:08;5.00;;;1.70;;
55069;SDS011;40967;52.070;8.596;2023-08-07T00:14:34;3.13;;;1.40;;
55069;SDS011;40967;52.070;8.596;2023-08-07T00:16:59;3.40;;;1.10;;
55069;SDS011;40967;52.070;8.596;2023-08-07T00:19:24;2.13;;;0.70;;
55069;SDS011;40967;52.070;8.596;2023-08-07T00:21:50;2.70;;;1.00;;
55069;SDS011;40967;52.070;8.596;2023-08-07T00:24:15;1.77;;;0.80;;
55069;SDS011;40967;52.070;8.596;2023-08-07T00:26:40;5.28;;;1.38;;
55069;SDS011;40967;52.070;8.596;2023-08-07T00:29:06;2.47;;;1.00;;
55069;SDS011;40967;52.070;8.596;2023-08-07T00:31:31;1.52;;;0.80;;
55069;SDS011;40967;52.070;8.596;2023-08-07T00:33:57;1.80;;;0.67;;
55069;SDS011;40967;52.070;8.596;2023-08-07T00:36:23;2.47;;;0.90;;
55069;SDS011;40967;52.070;8.596;2023-08-07T00:38:49;1.47;;;0.70;;
55069;SDS011;40967;52.070;8.596;2023-08-07T00:41:16;2.47;;;1.07;;
55069;SDS011;40967;52.070;8.596;2023-08-07T00:43:43;4.70;;;1.55;;
55069;SDS011;40967;52.070;8.596;2023-08-07T00:46:08;3.17;;;1.10;;
55069;SDS011;40967;52.070;8.596;2023-08-07T00:48:34;2.43;;;0.90;;
55069;SDS011;40967;52.070;8.596;2023-08-07T00:50:59;1.93;;;0.80;;
55069;SDS011;40967;52.070;8.596;2023-08-07T00:53:25;1.35;;;0.70;;
55069;SDS011;40967;52.070;8.596;2023-08-07T00:55:51;1.73;;;0.60;;
55069;SDS011;40967;52.070;8.596;2023-08-07T00:58:17;1.75;;;0.70;;
55069;SDS011;40967;52.070;8.596;2023-08-07T01:00:43;1.55;;;0.70;;
55069;SDS011;40967;52.070;8.596;2023-08-07T01:03:08;3.73;;;0.83;;
55069;SDS011;40967;52.070;8.596;2023-08-07T01:05:38;2.00;;;0.73;;
55069;SDS011;40967;52.070;8.596;2023-08-07T01:08:04;1.00;;;0.60;;
55069;SDS011;40967;52.070;8.596;2023-08-07T01:10:35;2.30;;;0.80;;
55069;SDS011;40967;52.070;8.596;2023-08-07T01:13:19;1.80;;;0.90;;
55069;SDS011;40967;52.070;8.596;2023-08-07T01:15:50;1.55;;;0.70;;
55069;SDS011;40967;52.070;8.596;2023-08-07T01:18:20;1.30;;;0.50;;
55069;SDS011;40967;52.070;8.596;2023-08-07T01:20:47;1.33;;;0.60;;
55069;SDS011;40967;52.070;8.596;2023-08-07T01:23:12;3.10;;;0.90;;
55069;SDS011;40967;52.070;8.596;2023-08-07T01:25:38;1.42;;;0.70;;
55069;SDS011;40967;52.070;8.596;2023-08-07T01:28:06;2.33;;;0.95;;
55069;SDS011;40967;52.070;8.596;2023-08-07T01:30:44;2.72;;;0.90;;
55069;SDS011;40967;52.070;8.596;2023-08-07T01:35:53;2.33;;;0.95;;
55069;SDS011;40967;52.070;8.596;2023-08-07T01:38:23;1.00;;;0.60;;
55069;SDS011;40967;52.070;8.596;2023-08-07T01:40:51;3.70;;;1.25;;
55069;SDS011;40967;52.070;8.596;2023-08-07T01:43:17;2.30;;;1.10;;
55069;SDS011;40967;52.070;8.596;2023-08-07T01:45:44;2.70;;;1.10;;
55069;SDS011;40967;52.070;8.596;2023-08-07T01:48:09;2.88;;;1.00;;
55069;SDS011;40967;52.070;8.596;2023-08-07T01:50:36;1.25;;;0.80;;
55069;SDS011;40967;52.070;8.596;2023-08-07T01:53:03;2.55;;;1.13;;
55069;SDS011;40967;52.070;8.596;2023-08-07T01:55:29;2.65;;;1.13;;
55069;SDS011;40967;52.070;8.596;2023-08-07T01:57:57;2.93;;;1.10;;
55069;SDS011;40967;52.070;8.596;2023-08-07T02:00:23;2.25;;;1.00;;
55069;SDS011;40967;52.070;8.596;2023-08-07T02:02:48;2.10;;;0.87;;
55069;SDS011;40967;52.070;8.596;2023-08-07T02:05:17;2.70;;;0.90;;
55069;SDS011;40967;52.070;8.596;2023-08-07T02:07:42;2.10;;;1.00;;
55069;SDS011;40967;52.070;8.596;2023-08-07T02:10:09;2.13;;;0.80;;
55069;SDS011;40967;52.070;8.596;2023-08-07T02:12:34;1.70;;;0.90;;
55069;SDS011;40967;52.070;8.596;2023-08-07T02:15:00;2.88;;;1.25;;
55069;SDS011;40967;52.070;8.596;2023-08-07T02:17:27;3.67;;;1.33;;
55069;SDS011;40967;52.070;8.596;2023-08-07T02:19:55;2.88;;;1.35;;
55069;SDS011;40967;52.070;8.596;2023-08-07T02:22:20;2.83;;;1.10;;
55069;SDS011;40967;52.070;8.596;2023-08-07T02:24:46;3.40;;;1.33;;
55069;SDS011;40967;52.070;8.596;2023-08-07T02:27:11;5.22;;;1.77;;
55069;SDS011;40967;52.070;8.596;2023-08-07T02:29:37;4.80;;;2.00;;
55069;SDS011;40967;52.070;8.596;2023-08-07T02:32:02;4.17;;;1.60;;
55069;SDS011;40967;52.070;8.596;2023-08-07T02:34:29;5.70;;;2.13;;
55069;SDS011;40967;52.070;8.596;2023-08-07T02:36:54;4.30;;;1.75;;
55069;SDS011;40967;52.070;8.596;2023-08-07T02:39:20;4.35;;;1.75;;
55069;SDS011;40967;52.070;8.596;2023-08-07T02:41:45;3.90;;;1.80;;
55069;SDS011;40967;52.070;8.596;2023-08-07T02:44:11;3.37;;;1.53;;
55069;SDS011;40967;52.070;8.596;2023-08-07T02:46:36;4.53;;;1.83;;
55069;SDS011;40967;52.070;8.596;2023-08-07T02:49:02;2.93;;;1.30;;
55069;SDS011;40967;52.070;8.596;2023-08-07T02:51:27;4.15;;;1.58;;
55069;SDS011;40967;52.070;8.596;2023-08-07T02:53:52;2.13;;;1.23;;
55069;SDS011;40967;52.070;8.596;2023-08-07T02:56:18;1.60;;;1.00;;
55069;SDS011;40967;52.070;8.596;2023-08-07T02:58:43;3.13;;;1.30;;
55069;SDS011;40967;52.070;8.596;2023-08-07T03:01:09;3.20;;;1.60;;
55069;SDS011;40967;52.070;8.596;2023-08-07T03:03:34;3.80;;;1.70;;
55069;SDS011;40967;52.070;8.596;2023-08-07T03:05:59;2.10;;;1.40;;
55069;SDS011;40967;52.070;8.596;2023-08-07T03:08:25;8.38;;;2.63;;
55069;SDS011;40967;52.070;8.596;2023-08-07T03:10:51;4.07;;;1.73;;
55069;SDS011;40967;52.070;8.596;2023-08-07T03:13:18;3.55;;;1.77;;
55069;SDS011;40967;52.070;8.596;2023-08-07T03:15:43;3.03;;;1.60;;
55069;SDS011;40967;52.070;8.596;2023-08-07T03:18:09;4.37;;;2.27;;
55069;SDS011;40967;52.070;8.596;2023-08-07T03:20:36;4.10;;;1.77;;
55069;SDS011;40967;52.070;8.596;2023-08-07T03:23:02;4.55;;;1.70;;
55069;SDS011;40967;52.070;8.596;2023-08-07T03:25:27;2.53;;;1.40;;
55069;SDS011;40967;52.070;8.596;2023-08-07T03:27:52;3.33;;;1.73;;
55069;SDS011;40967;52.070;8.596;2023-08-07T03:30:18;7.20;;;2.40;;
55069;SDS011;40967;52.070;8.596;2023-08-07T03:32:43;3.67;;;1.98;;
55069;SDS011;40967;52.070;8.596;2023-08-07T03:35:09;5.25;;;2.40;;
55069;SDS011;40967;52.070;8.596;2023-08-07T03:37:34;3.40;;;1.70;;
55069;SDS011;40967;52.070;8.596;2023-08-07T03:39:59;4.93;;;2.00;;
55069;SDS011;40967;52.070;8.596;2023-08-07T03:42:25;3.07;;;1.60;;
55069;SDS011;40967;52.070;8.596;2023-08-07T03:44:50;5.20;;;1.93;;
55069;SDS011;40967;52.070;8.596;2023-08-07T03:47:15;4.03;;;1.77;;
55069;SDS011;40967;52.070;8.596;2023-08-07T03:49:41;4.93;;;2.33;;
55069;SDS011;40967;52.070;8.596;2023-08-07T03:52:06;6.23;;;2.90;;
55069;SDS011;40967;52.070;8.596;2023-08-07T03:54:32;5.25;;;2.80;;
55069;SDS011;40967;52.070;8.596;2023-08-07T03:56:57;4.63;;;2.20;;
55069;SDS011;40967;52.070;8.596;2023-08-07T03:59:23;4.10;;;2.00;;
55069;SDS011;40967;52.070;8.596;2023-08-07T04:01:48;3.70;;;1.90;;
55069;SDS011;40967;52.070;8.596;2023-08-07T04:04:13;2.70;;;1.50;;
55069;SDS011;40967;52.070;8.596;2023-08-07T04:06:39;2.93;;;1.70;;
55069;SDS011;40967;52.070;8.596;2023-08-07T04:09:04;2.93;;;1.50;;
55069;SDS011;40967;52.070;8.596;2023-08-07T04:11:30;3.97;;;1.83;;
55069;SDS011;40967;52.070;8.596;2023-08-07T04:13:55;3.85;;;1.92;;
55069;SDS011;40967;52.070;8.596;2023-08-07T04:16:21;2.97;;;1.80;;
55069;SDS011;40967;52.070;8.596;2023-08-07T04:18:46;4.50;;;2.17;;
55069;SDS011;40967;52.070;8.596;2023-08-07T04:21:12;5.25;;;2.47;;
55069;SDS011;40967;52.070;8.596;2023-08-07T04:23:37;6.60;;;3.35;;
55069;SDS011;40967;52.070;8.596;2023-08-07T04:26:03;6.60;;;3.50;;
55069;SDS011;40967;52.070;8.596;2023-08-07T04:28:31;7.68;;;4.55;;
55069;SDS011;40967;52.070;8.596;2023-08-07T04:30:56;7.03;;;3.57;;
55069;SDS011;40967;52.070;8.596;2023-08-07T04:33:21;4.72;;;2.90;;
55069;SDS011;40967;52.070;8.596;2023-08-07T04:35:47;3.80;;;2.40;;
55069;SDS011;40967;52.070;8.596;2023-08-07T04:38:13;7.63;;;3.13;;
55069;SDS011;40967;52.070;8.596;2023-08-07T04:40:46;5.23;;;2.80;;
55069;SDS011;40967;52.070;8.596;2023-08-07T04:43:13;5.82;;;3.00;;
55069;SDS011;40967;52.070;8.596;2023-08-07T04:45:39;5.27;;;2.80;;
55069;SDS011;40967;52.070;8.596;2023-08-07T04:48:05;4.15;;;2.30;;
55069;SDS011;40967;52.070;8.596;2023-08-07T04:50:31;4.83;;;2.47;;
55069;SDS011;40967;52.070;8.596;2023-08-07T04:52:57;3.47;;;1.92;;
55069;SDS011;40967;52.070;8.596;2023-08-07T04:55:22;3.23;;;1.90;;
55069;SDS011;40967;52.070;8.596;2023-08-07T04:57:51;3.03;;;1.83;;
55069;SDS011;40967;52.070;8.596;2023-08-07T05:00:19;4.10;;;2.22;;
55069;SDS011;40967;52.070;8.596;2023-08-07T05:02:45;3.88;;;2.20;;
55069;SDS011;40967;52.070;8.596;2023-08-07T05:05:13;4.28;;;2.10;;
55069;SDS011;40967;52.070;8.596;2023-08-07T05:07:39;5.10;;;2.50;;
55069;SDS011;40967;52.070;8.596;2023-08-07T05:10:05;5.33;;;2.50;;
55069;SDS011;40967;52.070;8.596;2023-08-07T05:12:31;3.58;;;1.92;;
55069;SDS011;40967;52.070;8.596;2023-08-07T05:14:56;3.37;;;1.87;;
55069;SDS011;40967;52.070;8.596;2023-08-07T05:17:21;2.70;;;1.50;;
55069;SDS011;40967;52.070;8.596;2023-08-07T05:19:47;3.90;;;1.97;;
55069;SDS011;40967;52.070;8.596;2023-08-07T05:22:12;4.50;;;2.00;;
55069;SDS011;40967;52.070;8.596;2023-08-07T05:24:38;3.53;;;1.77;;
55069;SDS011;40967;52.070;8.596;2023-08-07T05:27:12;6.97;;;2.90;;
55069;SDS011;40967;52.070;8.596;2023-08-07T05:29:38;3.85;;;1.95;;
55069;SDS011;40967;52.070;8.596;2023-08-07T05:32:13;3.60;;;1.73;;
55069;SDS011;40967;52.070;8.596;2023-08-07T05:34:39;4.15;;;2.00;;
55069;SDS011;40967;52.070;8.596;2023-08-07T05:37:06;3.00;;;1.60;;
55069;SDS011;40967;52.070;8.596;2023-08-07T05:39:31;4.32;;;2.00;;
55069;SDS011;40967;52.070;8.596;2023-08-07T05:41:57;3.67;;;2.10;;
55069;SDS011;40967;52.070;8.596;2023-08-07T05:44:26;3.37;;;1.50;;
55069;SDS011;40967;52.070;8.596;2023-08-07T05:46:51;3.17;;;1.50;;
55069;SDS011;40967;52.070;8.596;2023-08-07T05:49:17;3.27;;;1.50;;
55069;SDS011;40967;52.070;8.596;2023-08-07T05:51:42;4.60;;;2.03;;
55069;SDS011;40967;52.070;8.596;2023-08-07T05:54:08;3.47;;;1.70;;
55069;SDS011;40967;52.070;8.596;2023-08-07T05:56:34;4.03;;;1.63;;
55069;SDS011;40967;52.070;8.596;2023-08-07T05:58:59;2.95;;;1.40;;
55069;SDS011;40967;52.070;8.596;2023-08-07T06:01:25;3.63;;;1.65;;
55069;SDS011;40967;52.070;8.596;2023-08-07T06:03:56;4.90;;;1.80;;
55069;SDS011;40967;52.070;8.596;2023-08-07T06:06:22;4.95;;;1.90;;
55069;SDS011;40967;52.070;8.596;2023-08-07T06:08:48;4.80;;;1.75;;
55069;SDS011;40967;52.070;8.596;2023-08-07T06:11:13;4.17;;;1.70;;
55069;SDS011;40967;52.070;8.596;2023-08-07T06:13:40;5.43;;;1.70;;
55069;SDS011;40967;52.070;8.596;2023-08-07T06:16:06;6.78;;;1.88;;
55069;SDS011;40967;52.070;8.596;2023-08-07T06:18:31;5.40;;;1.80;;
55069;SDS011;40967;52.070;8.596;2023-08-07T06:20:57;3.33;;;1.60;;
55069;SDS011;40967;52.070;8.596;2023-08-07T06:23:25;3.70;;;1.40;;
55069;SDS011;40967;52.070;8.596;2023-08-07T06:25:50;3.60;;;1.63;;
55069;SDS011;40967;52.070;8.596;2023-08-07T06:28:16;5.30;;;1.60;;
55069;SDS011;40967;52.070;8.596;2023-08-07T06:30:41;3.60;;;1.40;;
55069;SDS011;40967;52.070;8.596;2023-08-07T06:33:07;3.13;;;1.10;;
55069;SDS011;40967;52.070;8.596;2023-08-07T06:35:37;3.63;;;1.20;;
55069;SDS011;40967;52.070;8.596;2023-08-07T06:38:03;4.30;;;1.27;;
55069;SDS011;40967;52.070;8.596;2023-08-07T06:40:29;4.22;;;1.20;;
55069;SDS011;40967;52.070;8.596;2023-08-07T06:42:54;3.65;;;1.30;;
55069;SDS011;40967;52.070;8.596;2023-08-07T06:45:19;3.85;;;1.17;;
55069;SDS011;40967;52.070;8.596;2023-08-07T06:47:45;4.23;;;1.13;;
55069;SDS011;40967;52.070;8.596;2023-08-07T06:50:10;3.53;;;1.10;;
55069;SDS011;40967;52.070;8.596;2023-08-07T06:52:36;3.33;;;1.10;;
55069;SDS011;40967;52.070;8.596;2023-08-07T06:55:02;2.53;;;0.90;;
55069;SDS011;40967;52.070;8.596;2023-08-07T06:57:28;2.67;;;0.93;;
55069;SDS011;40967;52.070;8.596;2023-08-07T06:59:54;3.13;;;1.00;;
55069;SDS011;40967;52.070;8.596;2023-08-07T07:02:19;4.57;;;1.30;;
55069;SDS011;40967;52.070;8.596;2023-08-07T07:04:44;3.50;;;0.93;;
55069;SDS011;40967;52.070;8.596;2023-08-07T07:07:10;3.70;;;0.93;;
55069;SDS011;40967;52.070;8.596;2023-08-07T07:09:35;3.10;;;1.00;;
55069;SDS011;40967;52.070;8.596;2023-08-07T07:12:00;3.50;;;1.00;;
55069;SDS011;40967;52.070;8.596;2023-08-07T07:14:26;2.33;;;1.03;;
55069;SDS011;40967;52.070;8.596;2023-08-07T07:16:51;2.30;;;0.90;;
55069;SDS011;40967;52.070;8.596;2023-08-07T07:19:17;2.10;;;0.90;;
55069;SDS011;40967;52.070;8.596;2023-08-07T07:21:43;1.70;;;0.70;;
55069;SDS011;40967;52.070;8.596;2023-08-07T07:24:09;3.60;;;1.25;;
55069;SDS011;40967;52.070;8.596;2023-08-07T07:26:34;2.67;;;0.90;;
55069;SDS011;40967;52.070;8.596;2023-08-07T07:29:03;2.65;;;0.90;;
55069;SDS011;40967;52.070;8.596;2023-08-07T07:31:29;2.15;;;0.90;;
55069;SDS011;40967;52.070;8.596;2023-08-07T07:33:54;2.93;;;1.10;;
55069;SDS011;40967;52.070;8.596;2023-08-07T07:36:19;5.40;;;1.40;;
55069;SDS011;40967;52.070;8.596;2023-08-07T07:38:45;3.23;;;1.27;;
55069;SDS011;40967;52.070;8.596;2023-08-07T07:41:12;2.08;;;1.00;;
55069;SDS011;40967;52.070;8.596;2023-08-07T07:43:38;3.13;;;1.10;;
55069;SDS011;40967;52.070;8.596;2023-08-07T07:46:03;2.35;;;0.98;;
55069;SDS011;40967;52.070;8.596;2023-08-07T07:48:29;2.88;;;1.20;;
55069;SDS011;40967;52.070;8.596;2023-08-07T07:50:58;2.80;;;1.20;;
55069;SDS011;40967;52.070;8.596;2023-08-07T07:53:24;2.03;;;1.10;;
55069;SDS011;40967;52.070;8.596;2023-08-07T07:55:50;5.38;;;1.50;;
55069;SDS011;40967;52.070;8.596;2023-08-07T07:58:15;3.97;;;1.33;;
55069;SDS011;40967;52.070;8.596;2023-08-07T08:00:40;5.00;;;1.60;;
55069;SDS011;40967;52.070;8.596;2023-08-07T08:03:07;2.20;;;1.15;;
55069;SDS011;40967;52.070;8.596;2023-08-07T08:05:33;6.93;;;1.53;;
55069;SDS011;40967;52.070;8.596;2023-08-07T08:07:59;4.63;;;1.60;;
55069;SDS011;40967;52.070;8.596;2023-08-07T08:10:26;3.42;;;1.30;;
55069;SDS011;40967;52.070;8.596;2023-08-07T08:12:54;4.97;;;1.40;;
55069;SDS011;40967;52.070;8.596;2023-08-07T08:15:20;3.35;;;1.30;;
55069;SDS011;40967;52.070;8.596;2023-08-07T08:17:46;2.05;;;1.10;;
55069;SDS011;40967;52.070;8.596;2023-08-07T08:20:12;2.92;;;1.30;;
55069;SDS011;40967;52.070;8.596;2023-08-07T08:22:42;2.78;;;1.10;;
55069;SDS011;40967;52.070;8.596;2023-08-07T08:25:07;3.13;;;1.00;;
55069;SDS011;40967;52.070;8.596;2023-08-07T08:27:34;2.08;;;0.80;;
55069;SDS011;40967;52.070;8.596;2023-08-07T08:30:00;3.83;;;1.20;;
55069;SDS011;40967;52.070;8.596;2023-08-07T08:32:25;2.77;;;1.10;;
55069;SDS011;40967;52.070;8.596;2023-08-07T08:34:51;1.77;;;1.00;;
55069;SDS011;40967;52.070;8.596;2023-08-07T08:37:16;5.07;;;1.60;;
55069;SDS011;40967;52.070;8.596;2023-08-07T08:39:42;6.22;;;2.22;;
55069;SDS011;40967;52.070;8.596;2023-08-07T08:42:08;8.57;;;2.00;;
55069;SDS011;40967;52.070;8.596;2023-08-07T08:44:38;4.25;;;1.67;;
55069;SDS011;40967;52.070;8.596;2023-08-07T08:47:04;4.82;;;1.88;;
55069;SDS011;40967;52.070;8.596;2023-08-07T08:49:33;5.40;;;1.90;;
55069;SDS011;40967;52.070;8.596;2023-08-07T08:52:01;7.53;;;2.60;;
55069;SDS011;40967;52.070;8.596;2023-08-07T08:54:27;5.75;;;1.98;;
55069;SDS011;40967;52.070;8.596;2023-08-07T08:56:54;9.02;;;2.20;;
55069;SDS011;40967;52.070;8.596;2023-08-07T08:59:21;5.53;;;1.90;;
55069;SDS011;40967;52.070;8.596;2023-08-07T09:01:47;4.83;;;1.60;;
55069;SDS011;40967;52.070;8.596;2023-08-07T09:04:15;4.53;;;1.60;;
55069;SDS011;40967;52.070;8.596;2023-08-07T09:06:41;6.47;;;1.53;;
55069;SDS011;40967;52.070;8.596;2023-08-07T09:09:07;3.63;;;1.67;;
55069;SDS011;40967;52.070;8.596;2023-08-07T09:11:33;5.50;;;1.73;;
55069;SDS011;40967;52.070;8.596;2023-08-07T09:14:01;7.38;;;2.13;;
55069;SDS011;40967;52.070;8.596;2023-08-07T09:16:28;7.27;;;2.20;;
55069;SDS011;40967;52.070;8.596;2023-08-07T09:18:55;5.10;;;1.90;;
55069;SDS011;40967;52.070;8.596;2023-08-07T09:21:20;6.30;;;2.20;;
55069;SDS011;40967;52.070;8.596;2023-08-07T09:23:46;4.85;;;1.77;;
55069;SDS011;40967;52.070;8.596;2023-08-07T09:26:11;5.15;;;1.75;;
55069;SDS011;40967;52.070;8.596;2023-08-07T09:28:37;4.90;;;1.73;;
55069;SDS011;40967;52.070;8.596;2023-08-07T09:31:05;5.88;;;2.25;;
55069;SDS011;40967;52.070;8.596;2023-08-07T09:33:33;5.80;;;1.90;;
55069;SDS011;40967;52.070;8.596;2023-08-07T09:36:01;6.37;;;1.80;;
55069;SDS011;40967;52.070;8.596;2023-08-07T09:38:28;5.53;;;1.60;;
55069;SDS011;40967;52.070;8.596;2023-08-07T09:40:59;3.85;;;1.40;;
55069;SDS011;40967;52.070;8.596;2023-08-07T09:43:28;3.72;;;1.42;;
55069;SDS011;40967;52.070;8.596;2023-08-07T09:46:01;3.17;;;1.23;;
55069;SDS011;40967;52.070;8.596;2023-08-07T09:48:48;2.30;;;0.98;;
55069;SDS011;40967;52.070;8.596;2023-08-07T09:51:14;2.17;;;0.87;;
55069;SDS011;40967;52.070;8.596;2023-08-07T09:53:39;4.65;;;0.98;;
55069;SDS011;40967;52.070;8.596;2023-08-07T09:56:05;4.28;;;1.05;;
55069;SDS011;40967;52.070;8.596;2023-08-07T09:58:31;1.47;;;0.70;;
55069;SDS011;40967;52.070;8.596;2023-08-07T10:00:58;1.67;;;0.70;;
55069;SDS011;40967;52.070;8.596;2023-08-07T10:03:25;2.63;;;1.00;;
55069;SDS011;40967;52.070;8.596;2023-08-07T10:05:51;3.03;;;1.30;;
55069;SDS011;40967;52.070;8.596;2023-08-07T10:08:17;2.70;;;1.00;;
55069;SDS011;40967;52.070;8.596;2023-08-07T10:10:43;6.82;;;1.50;;
55069;SDS011;40967;52.070;8.596;2023-08-07T10:13:09;2.87;;;1.10;;
55069;SDS011;40967;52.070;8.596;2023-08-07T10:15:37;5.82;;;1.70;;
55069;SDS011;40967;52.070;8.596;2023-08-07T10:18:05;5.13;;;1.70;;
55069;SDS011;40967;52.070;8.596;2023-08-07T10:20:30;4.65;;;1.45;;
55069;SDS011;40967;52.070;8.596;2023-08-07T10:23:00;4.35;;;1.20;;
55069;SDS011;40967;52.070;8.596;2023-08-07T10:25:29;6.63;;;1.67;;
55069;SDS011;40967;52.070;8.596;2023-08-07T10:27:56;3.42;;;1.08;;
55069;SDS011;40967;52.070;8.596;2023-08-07T10:30:25;3.60;;;1.20;;
55069;SDS011;40967;52.070;8.596;2023-08-07T10:32:51;5.67;;;1.20;;
55069;SDS011;40967;52.070;8.596;2023-08-07T10:38:07;4.63;;;1.48;;
55069;SDS011;40967;52.070;8.596;2023-08-07T10:40:33;5.23;;;1.33;;
55069;SDS011;40967;52.070;8.596;2023-08-07T10:43:20;3.17;;;1.00;;
55069;SDS011;40967;52.070;8.596;2023-08-07T10:45:48;4.40;;;0.85;;
55069;SDS011;40967;52.070;8.596;2023-08-07T10:48:17;2.67;;;1.10;;
55069;SDS011;40967;52.070;8.596;2023-08-07T10:50:50;2.58;;;0.90;;
55069;SDS011;40967;52.070;8.596;2023-08-07T10:53:40;4.35;;;1.10;;
55069;SDS011;40967;52.070;8.596;2023-08-07T10:56:16;1.90;;;0.82;;
55069;SDS011;40967;52.070;8.596;2023-08-07T10:58:51;4.43;;;1.13;;
55069;SDS011;40967;52.070;8.596;2023-08-07T11:03:56;2.90;;;1.10;;
55069;SDS011;40967;52.070;8.596;2023-08-07T11:06:24;4.50;;;1.30;;
55069;SDS011;40967;52.070;8.596;2023-08-07T11:09:00;3.38;;;1.40;;
55069;SDS011;40967;52.070;8.596;2023-08-07T11:11:28;6.63;;;1.55;;
55069;SDS011;40967;52.070;8.596;2023-08-07T11:13:54;6.10;;;1.55;;
55069;SDS011;40967;52.070;8.596;2023-08-07T11:16:20;4.67;;;1.10;;
55069;SDS011;40967;52.070;8.596;2023-08-07T11:18:46;6.00;;;1.60;;
55069;SDS011;40967;52.070;8.596;2023-08-07T11:21:12;5.50;;;1.90;;
55069;SDS011;40967;52.070;8.596;2023-08-07T11:23:38;4.82;;;1.73;;
55069;SDS011;40967;52.070;8.596;2023-08-07T11:26:05;7.28;;;1.90;;
55069;SDS011;40967;52.070;8.596;2023-08-07T11:28:31;6.10;;;1.77;;
55069;SDS011;40967;52.070;8.596;2023-08-07T11:30:56;6.33;;;1.90;;
55069;SDS011;40967;52.070;8.596;2023-08-07T11:33:26;5.50;;;1.45;;
55069;SDS011;40967;52.070;8.596;2023-08-07T11:35:52;7.45;;;2.05;;
55069;SDS011;40967;52.070;8.596;2023-08-07T11:38:35;5.80;;;2.30;;
55069;SDS011;40967;52.070;8.596;2023-08-07T11:41:02;7.78;;;2.10;;
55069;SDS011;40967;52.070;8.596;2023-08-07T11:43:29;6.10;;;1.85;;
55069;SDS011;40967;52.070;8.596;2023-08-07T11:46:14;6.43;;;1.65;;
55069;SDS011;40967;52.070;8.596;2023-08-07T11:48:41;8.70;;;2.10;;
55069;SDS011;40967;52.070;8.596;2023-08-07T11:51:08;7.32;;;2.00;;
55069;SDS011;40967;52.070;8.596;2023-08-07T11:53:35;7.03;;;2.08;;
55069;SDS011;40967;52.070;8.596;2023-08-07T11:56:02;8.82;;;2.38;;
55069;SDS011;40967;52.070;8.596;2023-08-07T12:01:08;7.32;;;2.05;;
55069;SDS011;40967;52.070;8.596;2023-08-07T12:03:36;6.45;;;2.00;;
55069;SDS011;40967;52.070;8.596;2023-08-07T12:06:06;7.60;;;2.03;;
55069;SDS011;40967;52.070;8.596;2023-08-07T12:11:01;7.63;;;2.22;;
55069;SDS011;40967;52.070;8.596;2023-08-07T12:13:30;6.18;;;1.77;;
55069;SDS011;40967;52.070;8.596;2023-08-07T12:15:57;7.43;;;2.08;;
55069;SDS011;40967;52.070;8.596;2023-08-07T12:18:23;7.72;;;2.42;;
55069;SDS011;40967;52.070;8.596;2023-08-07T12:21:00;5.57;;;1.83;;
55069;SDS011;40967;52.070;8.596;2023-08-07T12:23:34;7.88;;;2.30;;
55069;SDS011;40967;52.070;8.596;2023-08-07T12:26:01;7.15;;;2.22;;
55069;SDS011;40967;52.070;8.596;2023-08-07T12:28:27;6.95;;;1.98;;
55069;SDS011;40967;52.070;8.596;2023-08-07T12:30:53;5.57;;;1.80;;
55069;SDS011;40967;52.070;8.596;2023-08-07T12:33:18;4.67;;;1.73;;
55069;SDS011;40967;52.070;8.596;2023-08-07T12:35:44;5.65;;;1.80;;
55069;SDS011;40967;52.070;8.596;2023-08-07T12:38:10;5.97;;;1.80;;
55069;SDS011;40967;52.070;8.596;2023-08-07T12:40:36;8.13;;;2.03;;
55069;SDS011;40967;52.070;8.596;2023-08-07T12:43:02;7.38;;;1.95;;
55069;SDS011;40967;52.070;8.596;2023-08-07T12:45:29;6.63;;;1.60;;
55069;SDS011;40967;52.070;8.596;2023-08-07T12:47:54;6.30;;;1.60;;
55069;SDS011;40967;52.070;8.596;2023-08-07T12:50:19;9.20;;;2.07;;
55069;SDS011;40967;52.070;8.596;2023-08-07T12:52:45;4.23;;;1.57;;
55069;SDS011;40967;52.070;8.596;2023-08-07T12:55:10;5.33;;;1.60;;
55069;SDS011;40967;52.070;8.596;2023-08-07T12:57:37;5.60;;;1.73;;
55069;SDS011;40967;52.070;8.596;2023-08-07T13:00:03;5.90;;;1.90;;
55069;SDS011;40967;52.070;8.596;2023-08-07T13:02:29;3.95;;;1.42;;
55069;SDS011;40967;52.070;8.596;2023-08-07T13:04:55;6.10;;;1.83;;
55069;SDS011;40967;52.070;8.596;2023-08-07T13:07:22;5.78;;;1.58;;
55069;SDS011;40967;52.070;8.596;2023-08-07T13:09:47;5.50;;;1.67;;
55069;SDS011;40967;52.070;8.596;2023-08-07T13:12:13;4.75;;;1.70;;
55069;SDS011;40967;52.070;8.596;2023-08-07T13:14:38;4.90;;;1.57;;
55069;SDS011;40967;52.070;8.596;2023-08-07T13:17:07;8.27;;;2.00;;
55069;SDS011;40967;52.070;8.596;2023-08-07T13:19:32;5.88;;;1.92;;
55069;SDS011;40967;52.070;8.596;2023-08-07T13:21:57;4.90;;;1.47;;
55069;SDS011;40967;52.070;8.596;2023-08-07T13:24:23;5.30;;;1.50;;
55069;SDS011;40967;52.070;8.596;2023-08-07T13:26:48;7.30;;;1.90;;
55069;SDS011;40967;52.070;8.596;2023-08-07T13:29:14;8.43;;;2.07;;
55069;SDS011;40967;52.070;8.596;2023-08-07T13:31:39;5.97;;;1.70;;
55069;SDS011;40967;52.070;8.596;2023-08-07T13:34:11;5.15;;;1.80;;
55069;SDS011;40967;52.070;8.596;2023-08-07T13:36:37;7.83;;;1.83;;
55069;SDS011;40967;52.070;8.596;2023-08-07T13:39:04;4.45;;;1.40;;
55069;SDS011;40967;52.070;8.596;2023-08-07T13:41:31;6.57;;;1.80;;
55069;SDS011;40967;52.070;8.596;2023-08-07T13:43:57;7.10;;;1.85;;
55069;SDS011;40967;52.070;8.596;2023-08-07T13:46:23;5.13;;;1.52;;
55069;SDS011;40967;52.070;8.596;2023-08-07T13:48:48;4.93;;;1.60;;
55069;SDS011;40967;52.070;8.596;2023-08-07T13:51:14;6.53;;;1.70;;
55069;SDS011;40967;52.070;8.596;2023-08-07T13:53:39;6.20;;;1.60;;
55069;SDS011;40967;52.070;8.596;2023-08-07T13:56:05;4.50;;;1.57;;
55069;SDS011;40967;52.070;8.596;2023-08-07T13:58:31;7.00;;;1.70;;
55069;SDS011;40967;52.070;8.596;2023-08-07T14:00:56;3.13;;;1.40;;
55069;SDS011;40967;52.070;8.596;2023-08-07T14:03:22;4.00;;;1.38;;
55069;SDS011;40967;52.070;8.596;2023-08-07T14:05:48;5.43;;;1.70;;
55069;SDS011;40967;52.070;8.596;2023-08-07T14:08:15;5.57;;;1.67;;
55069;SDS011;40967;52.070;8.596;2023-08-07T14:10:41;8.00;;;1.90;;
55069;SDS011;40967;52.070;8.596;2023-08-07T14:13:07;4.13;;;1.33;;
55069;SDS011;40967;52.070;8.596;2023-08-07T14:15:32;5.47;;;1.70;;
55069;SDS011;40967;52.070;8.596;2023-08-07T14:17:58;4.40;;;1.80;;
55069;SDS011;40967;52.070;8.596;2023-08-07T14:20:23;6.10;;;1.63;;
55069;SDS011;40967;52.070;8.596;2023-08-07T14:22:52;5.05;;;1.70;;
55069;SDS011;40967;52.070;8.596;2023-08-07T14:25:18;5.50;;;1.95;;
55069;SDS011;40967;52.070;8.596;2023-08-07T14:27:46;5.00;;;1.60;;
55069;SDS011;40967;52.070;8.596;2023-08-07T14:30:11;3.88;;;1.50;;
55069;SDS011;40967;52.070;8.596;2023-08-07T14:32:37;7.60;;;1.73;;
55069;SDS011;40967;52.070;8.596;2023-08-07T14:35:02;4.03;;;1.60;;
55069;SDS011;40967;52.070;8.596;2023-08-07T14:37:29;4.07;;;1.40;;
55069;SDS011;40967;52.070;8.596;2023-08-07T14:39:54;2.97;;;1.20;;
55069;SDS011;40967;52.070;8.596;2023-08-07T14:42:20;4.73;;;1.20;;
55069;SDS011;40967;52.070;8.596;2023-08-07T14:44:45;5.33;;;1.40;;
55069;SDS011;40967;52.070;8.596;2023-08-07T14:47:10;3.67;;;1.30;;
55069;SDS011;40967;52.070;8.596;2023-08-07T14:49:36;4.13;;;1.30;;
55069;SDS011;40967;52.070;8.596;2023-08-07T14:52:01;7.63;;;1.43;;
55069;SDS011;40967;52.070;8.596;2023-08-07T14:54:27;6.70;;;1.70;;
55069;SDS011;40967;52.070;8.596;2023-08-07T14:56:52;5.63;;;1.63;;
55069;SDS011;40967;52.070;8.596;2023-08-07T14:59:18;4.43;;;1.13;;